Tsukuba Maru — 3FUJ4 — position and weather

sailwx.info

Track history (hours):
 
Tides and Currents Weather Stations Pressure Air Temp Water Temp Dewpoint Dewpoint Depression Visibility Wind Speed Wind Dir Waves Ship Positions

Tsukuba Maru

Last reported at 2018-Jul-14 03:50 UTC. Time now 2018-Jul-21 11:32 UTC.
Position N 31°21' E 121°41'.

Length 299 m; draft 6.5 m.

Type: Cargo ship. MMSI: 352300000.

Date/timePositionNaut miles runAvg speedWind from/ knotsBaromVisibWave heightAir tempDewpointWater temp
2018-Jul-14 03:50N 31°21' E 121°41'411.1
2018-Jul-14 03:30N 31°18' E 121°44'714.4
2018-Jul-14 03:00N 31°12' E 121°49'714.6
2018-Jul-14 02:30N 31°08' E 121°56'612.5
2018-Jul-14 02:00N 31°05' E 122°02'611.4
2018-Jul-14 01:30N 31°03' E 122°08'5 9.7
2018-Jul-14 01:00N 31°03' E 122°14'4 8.6
2018-Jul-14 00:30N 31°02' E 122°19'4 7.5
2018-Jul-14 00:00N 31°02' E 122°23'7 8.8
2018-Jul-13 23:13N 31°00' E 122°31'2 8.7
2018-Jul-13 23:00N 30°60' E 122°33'6 1.0
2018-Jul-13 17:29N 31°01' E 122°40'0 0.0
2018-Jul-13 16:56N 31°01' E 122°40'0 0.0
2018-Jul-13 04:20N 31°01' E 122°40'0 0.1
2018-Jul-13 03:59N 31°01' E 122°40'0 0.0
2018-Jul-13 03:29N 31°01' E 122°40'  
Track history (hours):
 
Tides and Currents Weather Stations Pressure Air Temp Water Temp Dewpoint Dewpoint Depression Visibility Wind Speed Wind Dir Waves Ship Positions

Tsukuba Maru

Last reported at 2018-Jul-14 03:50 UTC. Time now 2018-Jul-21 11:32 UTC.
Position N 31°21' E 121°41'.

Length 299 m; draft 6.5 m.

Type: Cargo ship. MMSI: 352300000.

Date/timePositionNaut miles runAvg speedWind from/ knotsBaromVisibWave heightAir tempDewpointWater temp
2018-Jul-14 03:50N 31°21' E 121°41'411.1
2018-Jul-14 03:30N 31°18' E 121°44'714.4
2018-Jul-14 03:00N 31°12' E 121°49'714.6
2018-Jul-14 02:30N 31°08' E 121°56'612.5
2018-Jul-14 02:00N 31°05' E 122°02'611.4
2018-Jul-14 01:30N 31°03' E 122°08'5 9.7
2018-Jul-14 01:00N 31°03' E 122°14'4 8.6
2018-Jul-14 00:30N 31°02' E 122°19'4 7.5
2018-Jul-14 00:00N 31°02' E 122°23'7 8.8
2018-Jul-13 23:13N 31°00' E 122°31'2 8.7
2018-Jul-13 23:00N 30°60' E 122°33'6 1.0
2018-Jul-13 17:29N 31°01' E 122°40'0 0.0
2018-Jul-13 16:56N 31°01' E 122°40'0 0.0
2018-Jul-13 04:20N 31°01' E 122°40'0 0.1
2018-Jul-13 03:59N 31°01' E 122°40'0 0.0
2018-Jul-13 03:29N 31°01' E 122°40'  

Dump ship's entire track history